createdAt,value
2019-03-23T00:02:22.146Z,37.23
2019-03-23T00:04:53.294Z,37.50
2019-03-23T00:07:24.190Z,38.57
2019-03-23T00:09:54.966Z,39.33
2019-03-23T00:12:25.838Z,41.17
2019-03-23T00:14:56.634Z,41.57
2019-03-23T00:17:27.775Z,41.47
2019-03-23T00:19:58.578Z,41.07
2019-03-23T00:22:29.503Z,40.80
2019-03-23T00:25:00.366Z,43.83
2019-03-23T00:27:31.182Z,40.00
2019-03-23T00:30:03.594Z,43.90
2019-03-23T00:32:35.626Z,43.60
2019-03-23T00:35:07.402Z,44.87
2019-03-23T00:37:38.214Z,42.43
2019-03-23T00:40:09.190Z,45.20
2019-03-23T00:42:39.998Z,43.37
2019-03-23T00:45:11.150Z,44.33
2019-03-23T00:47:41.955Z,43.67
2019-03-23T00:50:13.261Z,46.97
2019-03-23T00:52:44.066Z,46.50
2019-03-23T00:55:15.058Z,44.77
2019-03-23T00:57:46.075Z,45.13
2019-03-23T01:00:17.797Z,45.20
2019-03-23T01:02:48.579Z,44.20
2019-03-23T01:05:19.490Z,45.47
2019-03-23T01:07:50.398Z,45.60
2019-03-23T01:10:21.317Z,47.37
2019-03-23T01:12:52.186Z,46.60
2019-03-23T01:15:23.127Z,47.10
2019-03-23T01:17:53.966Z,46.60
2019-03-23T01:20:24.758Z,45.90
2019-03-23T01:22:55.686Z,47.47
2019-03-23T01:25:26.531Z,47.13
2019-03-23T01:27:57.390Z,47.97
2019-03-23T01:30:28.200Z,48.87
2019-03-23T01:32:59.012Z,48.87
2019-03-23T01:35:29.834Z,45.23
2019-03-23T01:38:00.731Z,48.73
2019-03-23T01:40:31.670Z,46.70
2019-03-23T01:43:02.623Z,47.23
2019-03-23T01:45:33.582Z,47.10
2019-03-23T01:48:04.638Z,47.30
2019-03-23T01:50:35.480Z,48.40
2019-03-23T01:53:06.263Z,47.20
2019-03-23T01:55:37.407Z,46.70
2019-03-23T01:58:08.224Z,48.20
2019-03-23T02:00:39.155Z,47.67
2019-03-23T02:03:10.135Z,48.20
2019-03-23T02:05:40.939Z,47.40
2019-03-23T02:08:11.907Z,45.67
2019-03-23T02:10:42.781Z,47.13
2019-03-23T02:13:13.590Z,45.60
2019-03-23T02:15:44.535Z,48.30
2019-03-23T02:18:15.406Z,46.00
2019-03-23T02:20:46.507Z,44.50
2019-03-23T02:23:17.334Z,44.37
2019-03-23T02:25:48.191Z,46.13
2019-03-23T02:28:18.991Z,46.20
2019-03-23T02:30:49.862Z,47.83
2019-03-23T02:33:20.911Z,42.43
2019-03-23T02:35:51.957Z,44.07
2019-03-23T02:38:22.791Z,46.27
2019-03-23T02:40:53.752Z,45.03
2019-03-23T02:43:24.588Z,44.37
2019-03-23T02:45:55.555Z,45.53
2019-03-23T02:48:26.366Z,43.73
2019-03-23T02:50:57.185Z,44.77
2019-03-23T02:53:28.080Z,44.20
2019-03-23T02:55:58.963Z,43.37
2019-03-23T02:58:29.821Z,43.90
2019-03-23T03:01:00.697Z,43.97
2019-03-23T03:03:32.475Z,44.63
2019-03-23T03:06:03.372Z,43.17
2019-03-23T03:08:34.246Z,45.97
2019-03-23T03:11:06.109Z,44.10
2019-03-23T03:13:36.943Z,43.60
2019-03-23T03:16:07.819Z,44.83
2019-03-23T03:18:38.689Z,45.23
2019-03-23T03:21:09.753Z,43.20
2019-03-23T03:23:40.857Z,45.37
2019-03-23T03:26:12.647Z,46.07
2019-03-23T03:28:43.660Z,45.80
2019-03-23T03:31:14.588Z,42.60
2019-03-23T03:33:45.405Z,44.67
2019-03-23T03:36:16.290Z,43.23
2019-03-23T03:38:47.191Z,43.77
2019-03-23T03:41:19.062Z,43.57
2019-03-23T03:43:49.985Z,43.33
2019-03-23T03:46:20.800Z,43.40
2019-03-23T03:48:51.600Z,42.40
2019-03-23T03:51:22.472Z,43.70
2019-03-23T03:53:53.521Z,42.57
2019-03-23T03:56:24.499Z,43.50
2019-03-23T03:58:55.333Z,43.93
2019-03-23T04:01:26.270Z,41.17
2019-03-23T04:03:57.154Z,45.53
2019-03-23T04:06:27.964Z,41.57
2019-03-23T04:08:59.000Z,41.73
2019-03-23T04:11:29.834Z,44.50
2019-03-23T04:14:00.644Z,45.23
2019-03-23T04:16:31.467Z,42.63
2019-03-23T04:19:02.407Z,43.80
2019-03-23T04:21:33.344Z,45.53
2019-03-23T04:24:04.310Z,44.07
2019-03-23T04:26:35.184Z,42.77
2019-03-23T04:29:06.061Z,42.97
2019-03-23T04:31:36.855Z,42.37
2019-03-23T04:34:07.827Z,41.37
2019-03-23T04:36:38.678Z,40.60
2019-03-23T04:39:09.588Z,41.70
2019-03-23T04:41:40.556Z,41.63
2019-03-23T04:44:11.451Z,43.73
2019-03-23T04:46:43.999Z,43.53
2019-03-23T04:49:15.043Z,40.93
2019-03-23T04:51:45.871Z,43.77
2019-03-23T04:54:16.841Z,41.43
2019-03-23T04:56:47.673Z,43.97
2019-03-23T04:59:18.539Z,43.43
2019-03-23T05:01:49.499Z,44.10
2019-03-23T05:04:20.308Z,44.70
2019-03-23T05:06:51.099Z,45.60
2019-03-23T05:09:22.972Z,43.80
2019-03-23T05:11:53.791Z,42.90
2019-03-23T05:14:24.728Z,43.63
2019-03-23T05:16:55.591Z,42.87
2019-03-23T05:19:26.415Z,46.33
2019-03-23T05:21:57.319Z,45.27
2019-03-23T05:24:28.271Z,43.27
2019-03-23T05:26:59.311Z,44.57
2019-03-23T05:29:30.100Z,42.93
2019-03-23T05:32:00.906Z,44.07
2019-03-23T05:34:31.732Z,43.23
2019-03-23T05:37:02.671Z,46.30
2019-03-23T05:39:33.680Z,45.10
2019-03-23T05:42:04.763Z,42.50
2019-03-23T05:44:35.604Z,44.50
2019-03-23T05:47:06.433Z,43.03
2019-03-23T05:49:37.263Z,44.03
2019-03-23T05:52:08.273Z,46.80
2019-03-23T05:54:39.339Z,42.90
2019-03-23T05:57:10.216Z,45.30
2019-03-23T05:59:41.187Z,43.53
2019-03-23T06:02:12.115Z,43.90
2019-03-23T06:04:42.927Z,44.80
2019-03-23T06:07:13.831Z,45.63
2019-03-23T06:09:44.627Z,45.97
2019-03-23T06:12:17.625Z,45.33
2019-03-23T06:14:48.265Z,45.27
2019-03-23T06:17:19.199Z,43.93
2019-03-23T06:19:49.987Z,44.33
2019-03-23T06:22:20.804Z,43.10
2019-03-23T06:24:51.702Z,43.50
2019-03-23T06:27:22.519Z,45.03
2019-03-23T06:29:53.332Z,44.57
2019-03-23T06:32:25.112Z,44.20
2019-03-23T06:34:55.928Z,45.43
2019-03-23T06:37:26.784Z,45.10
2019-03-23T06:39:57.719Z,46.23
2019-03-23T06:42:28.627Z,47.53
2019-03-23T06:44:59.439Z,47.33
2019-03-23T06:47:30.371Z,45.40
2019-03-23T06:50:02.251Z,47.87
2019-03-23T06:52:33.154Z,48.10
2019-03-23T06:55:04.037Z,48.10
2019-03-23T06:57:34.907Z,48.17
2019-03-23T07:00:07.672Z,45.63
2019-03-23T07:02:39.547Z,47.67
2019-03-23T07:05:10.897Z,46.33
2019-03-23T07:07:41.895Z,47.67
2019-03-23T07:10:13.065Z,46.53
2019-03-23T07:12:43.933Z,48.93
2019-03-23T07:15:19.862Z,47.10
2019-03-23T07:17:47.580Z,48.03
2019-03-23T07:20:18.648Z,48.77
2019-03-23T07:22:49.434Z,50.23
2019-03-23T07:25:20.320Z,48.53
2019-03-23T07:27:51.100Z,49.17
2019-03-23T07:30:22.025Z,49.47
2019-03-23T07:32:52.880Z,48.40
2019-03-23T07:35:23.831Z,47.93
2019-03-23T07:37:54.645Z,53.63
2019-03-23T07:40:25.544Z,48.20
2019-03-23T07:42:56.470Z,52.67
2019-03-23T07:45:27.268Z,53.30
2019-03-23T07:47:58.200Z,49.03
2019-03-23T07:50:29.070Z,47.77
2019-03-23T07:52:59.956Z,45.90
2019-03-23T07:55:31.155Z,47.73
2019-03-23T07:58:01.972Z,47.10
2019-03-23T08:00:32.884Z,48.57
2019-03-23T08:03:04.028Z,45.70
2019-03-23T08:05:34.867Z,47.37
2019-03-23T08:08:06.656Z,44.57
2019-03-23T08:10:38.484Z,46.33
2019-03-23T08:13:09.312Z,46.20
2019-03-23T08:15:40.224Z,43.80
2019-03-23T08:18:11.115Z,44.70
2019-03-23T08:20:42.512Z,45.57
2019-03-23T08:23:13.400Z,44.37
2019-03-23T08:25:44.316Z,44.13
2019-03-23T08:28:15.128Z,41.43
2019-03-23T08:30:46.096Z,43.37
2019-03-23T08:33:18.220Z,39.83
2019-03-23T08:35:49.905Z,43.50
2019-03-23T08:38:21.044Z,41.63
2019-03-23T08:40:52.372Z,41.77
2019-03-23T08:43:23.813Z,40.20
2019-03-23T08:45:54.668Z,43.13
2019-03-23T08:48:25.552Z,41.87
2019-03-23T08:50:56.356Z,39.93
2019-03-23T08:53:27.167Z,41.17
2019-03-23T08:55:58.048Z,39.03
2019-03-23T08:58:30.355Z,42.13
2019-03-23T09:01:01.301Z,40.17
2019-03-23T09:03:32.235Z,39.73
2019-03-23T09:06:03.057Z,39.97
2019-03-23T09:08:33.960Z,39.80
2019-03-23T09:11:04.912Z,41.67
2019-03-23T09:13:40.656Z,39.67
2019-03-23T09:16:08.329Z,40.03
2019-03-23T09:18:39.204Z,42.93
2019-03-23T09:21:10.108Z,40.27
2019-03-23T09:23:41.016Z,40.57
2019-03-23T09:26:13.618Z,39.93
2019-03-23T09:28:44.444Z,36.63
2019-03-23T09:31:16.416Z,39.87
2019-03-23T09:33:47.209Z,39.07
2019-03-23T09:36:18.032Z,47.50
2019-03-23T09:38:48.910Z,40.30
2019-03-23T09:41:19.793Z,39.37
2019-03-23T09:43:50.662Z,39.27
2019-03-23T09:46:21.540Z,39.87
2019-03-23T09:48:52.477Z,39.43
2019-03-23T09:51:23.388Z,38.40
2019-03-23T09:53:57.157Z,38.83
2019-03-23T09:56:27.945Z,37.07
2019-03-23T09:58:58.850Z,37.50
2019-03-23T10:01:29.648Z,39.23
2019-03-23T10:04:00.551Z,37.27
2019-03-23T10:06:31.424Z,37.30
2019-03-23T10:09:02.308Z,37.47
2019-03-23T10:11:34.261Z,37.73
2019-03-23T10:14:05.157Z,37.40
2019-03-23T10:16:35.958Z,36.87
2019-03-23T10:19:07.005Z,37.03
2019-03-23T10:21:37.818Z,36.67
2019-03-23T10:24:08.641Z,36.97
2019-03-23T10:26:39.464Z,38.40
2019-03-23T10:29:10.268Z,38.13
2019-03-23T10:31:41.109Z,38.97
2019-03-23T10:34:11.901Z,41.63
2019-03-23T10:36:42.781Z,41.63
2019-03-23T10:39:13.604Z,37.23
2019-03-23T10:41:48.001Z,38.87
2019-03-23T10:44:18.884Z,38.37
2019-03-23T10:46:49.756Z,37.80
2019-03-23T10:49:20.586Z,39.93
2019-03-23T10:51:51.408Z,36.80
2019-03-23T10:54:22.229Z,36.50
2019-03-23T10:56:53.029Z,36.90
2019-03-23T10:59:23.865Z,37.57
2019-03-23T11:01:54.821Z,37.77
2019-03-23T11:04:25.819Z,37.13
2019-03-23T11:06:57.049Z,36.30
2019-03-23T11:09:27.885Z,38.10
2019-03-23T11:11:58.815Z,38.57
2019-03-23T11:14:29.627Z,37.30
2019-03-23T11:17:00.510Z,38.33
2019-03-23T11:19:32.624Z,37.93
2019-03-23T11:22:03.437Z,36.67
2019-03-23T11:24:34.333Z,40.67
2019-03-23T11:27:05.353Z,38.20
2019-03-23T11:29:36.281Z,37.83
2019-03-23T11:32:07.250Z,38.63
2019-03-23T11:34:38.197Z,38.73
2019-03-23T11:37:09.073Z,38.03
2019-03-23T11:39:40.103Z,36.00
2019-03-23T11:42:11.981Z,38.90
2019-03-23T11:44:42.852Z,37.00
2019-03-23T11:47:13.753Z,38.47
2019-03-23T11:49:44.641Z,38.90
2019-03-23T11:52:15.441Z,39.87
2019-03-23T11:54:46.273Z,37.97
2019-03-23T11:57:17.165Z,38.33
2019-03-23T11:59:48.001Z,38.33
2019-03-23T12:02:18.992Z,38.73
2019-03-23T12:04:50.769Z,38.47
2019-03-23T12:07:21.626Z,38.83
2019-03-23T12:09:52.437Z,39.80
2019-03-23T12:12:23.429Z,39.80
2019-03-23T12:14:54.301Z,39.13
2019-03-23T12:17:25.997Z,37.97
2019-03-23T12:19:56.828Z,38.97
2019-03-23T12:22:28.045Z,40.30
2019-03-23T12:24:58.864Z,39.10
2019-03-23T12:27:29.732Z,39.83
2019-03-23T12:30:07.091Z,37.73
2019-03-23T12:32:33.338Z,39.27
2019-03-23T12:35:05.297Z,38.67
2019-03-23T12:37:36.481Z,38.87
2019-03-23T12:40:08.347Z,39.07
2019-03-23T12:42:39.253Z,38.00
2019-03-23T12:45:11.449Z,38.37
2019-03-23T12:47:42.345Z,36.93
2019-03-23T12:50:14.190Z,38.07
2019-03-23T12:52:45.297Z,39.03
2019-03-23T12:55:16.132Z,37.40
2019-03-23T12:57:47.013Z,36.93
2019-03-23T13:00:18.926Z,38.73
2019-03-23T13:02:49.845Z,39.93
2019-03-23T13:05:20.750Z,39.07
2019-03-23T13:07:51.565Z,37.57
2019-03-23T13:10:22.385Z,40.50
2019-03-23T13:12:53.177Z,37.63
2019-03-23T13:15:24.069Z,38.50
2019-03-23T13:17:55.117Z,38.87
2019-03-23T13:20:26.321Z,37.37
2019-03-23T13:22:57.310Z,37.17
2019-03-23T13:25:28.145Z,38.00
2019-03-23T13:27:59.058Z,36.97
2019-03-23T13:30:29.913Z,40.33
2019-03-23T13:33:00.789Z,38.17
2019-03-23T13:35:31.622Z,37.67
2019-03-23T13:38:02.429Z,38.40
2019-03-23T13:40:33.405Z,36.57
2019-03-23T13:43:09.637Z,36.93
2019-03-23T13:45:42.760Z,34.67
2019-03-23T13:48:13.721Z,37.93
2019-03-23T13:50:44.644Z,35.83
2019-03-23T13:53:15.529Z,36.40
2019-03-23T13:55:46.511Z,37.97
2019-03-23T13:58:17.378Z,37.67
2019-03-23T14:00:48.253Z,37.73
2019-03-23T14:03:19.154Z,36.60
2019-03-23T14:05:50.026Z,37.77
2019-03-23T14:08:20.950Z,38.13
2019-03-23T14:10:51.749Z,38.20
2019-03-23T14:13:22.580Z,38.50
2019-03-23T14:15:53.361Z,39.20
2019-03-23T14:18:24.194Z,38.90
2019-03-23T14:20:55.110Z,38.83
2019-03-23T14:23:25.946Z,39.23
2019-03-23T14:25:56.743Z,36.80
2019-03-23T14:28:27.577Z,37.93
2019-03-23T14:30:58.397Z,37.00
2019-03-23T14:33:29.256Z,39.30
2019-03-23T14:36:00.238Z,38.73
2019-03-23T14:38:31.079Z,37.87
2019-03-23T14:41:01.973Z,38.07
2019-03-23T14:43:33.241Z,38.80
2019-03-23T14:46:04.153Z,38.80
2019-03-23T14:48:35.049Z,38.53
2019-03-23T14:51:05.945Z,38.67
2019-03-23T14:53:36.781Z,38.33
2019-03-23T14:56:07.590Z,40.33
2019-03-23T14:58:38.690Z,39.87
2019-03-23T15:01:09.849Z,40.53
2019-03-23T15:03:40.710Z,39.93
2019-03-23T15:06:11.524Z,39.87
2019-03-23T15:08:42.358Z,38.93
2019-03-23T15:11:13.245Z,39.53
2019-03-23T15:13:44.070Z,38.23
2019-03-23T15:16:14.869Z,39.70
2019-03-23T15:18:45.685Z,38.70
2019-03-23T15:21:16.512Z,36.80
2019-03-23T15:23:47.410Z,37.00
2019-03-23T15:26:18.239Z,37.03
2019-03-23T15:28:49.178Z,35.00
2019-03-23T15:31:19.974Z,34.40
2019-03-23T15:33:50.934Z,34.33
2019-03-23T15:36:21.891Z,33.80
2019-03-23T15:38:53.066Z,36.50
2019-03-23T15:41:24.832Z,35.47
2019-03-23T15:43:55.733Z,35.27
2019-03-23T15:46:26.607Z,34.87
2019-03-23T15:48:57.610Z,35.00
2019-03-23T15:51:28.509Z,35.73
2019-03-23T15:53:59.406Z,33.90
2019-03-23T15:56:30.474Z,34.37
2019-03-23T15:59:01.294Z,35.30
2019-03-23T16:01:32.437Z,34.70
2019-03-23T16:04:03.427Z,34.67
2019-03-23T16:06:35.334Z,34.33
2019-03-23T16:09:07.510Z,36.77
2019-03-23T16:11:38.438Z,35.43
2019-03-23T16:14:09.338Z,34.93
2019-03-23T16:16:40.291Z,34.67
2019-03-23T16:19:11.190Z,35.23
2019-03-23T16:21:42.228Z,35.77
2019-03-23T16:24:13.038Z,34.97
2019-03-23T16:26:43.922Z,34.80
2019-03-23T16:29:14.738Z,35.33
2019-03-23T16:31:45.586Z,37.73
2019-03-23T16:34:16.479Z,35.60
2019-03-23T16:36:47.322Z,35.73
2019-03-23T16:39:18.134Z,40.90
2019-03-23T16:41:49.031Z,30.40
2019-03-23T16:44:19.842Z,22.60
2019-03-23T16:46:51.082Z,21.77
2019-03-23T16:49:21.922Z,19.63
2019-03-23T16:51:52.734Z,19.43
2019-03-23T16:54:23.695Z,20.20
2019-03-23T16:56:54.922Z,20.37
2019-03-23T16:59:25.786Z,20.73
2019-03-23T17:01:56.743Z,19.90
2019-03-23T17:04:27.543Z,20.53
2019-03-23T17:06:58.435Z,20.07
2019-03-23T17:09:29.226Z,20.43
2019-03-23T17:12:00.115Z,20.17
2019-03-23T17:14:30.954Z,21.73
2019-03-23T17:17:01.826Z,20.80
2019-03-23T17:19:33.601Z,21.37
2019-03-23T17:22:04.496Z,21.37
2019-03-23T17:24:35.586Z,19.77
2019-03-23T17:27:06.568Z,21.77
2019-03-23T17:29:37.482Z,21.77
2019-03-23T17:32:08.384Z,20.87
2019-03-23T17:34:39.202Z,21.17
2019-03-23T17:37:10.182Z,21.20
2019-03-23T17:39:41.094Z,20.60
2019-03-23T17:42:11.983Z,20.80
2019-03-23T17:44:42.854Z,20.33
2019-03-23T17:47:13.831Z,19.80
2019-03-23T17:49:44.627Z,18.90
2019-03-23T17:52:15.471Z,20.47
2019-03-23T17:54:46.323Z,19.37
2019-03-23T17:57:18.895Z,18.03
2019-03-23T17:59:49.698Z,19.67
2019-03-23T18:02:20.719Z,19.13
2019-03-23T18:04:51.682Z,18.13
2019-03-23T18:07:22.506Z,17.73
2019-03-23T18:09:53.303Z,18.20
2019-03-23T18:12:24.185Z,16.10
2019-03-23T18:14:55.275Z,16.70
2019-03-23T18:17:26.198Z,19.10
2019-03-23T18:19:57.023Z,17.97
2019-03-23T18:22:27.943Z,19.00
2019-03-23T18:24:58.774Z,18.43
2019-03-23T18:27:29.602Z,17.63
2019-03-23T18:30:00.431Z,17.83
2019-03-23T18:32:31.298Z,18.33
2019-03-23T18:35:03.230Z,18.80
2019-03-23T18:37:34.420Z,19.43
2019-03-23T18:40:08.138Z,18.67
2019-03-23T18:42:38.858Z,19.30
2019-03-23T18:45:09.881Z,20.00
2019-03-23T18:47:40.711Z,19.73
2019-03-23T18:50:11.736Z,17.97
2019-03-23T18:52:42.534Z,17.53
2019-03-23T18:55:13.435Z,17.43
2019-03-23T18:57:44.333Z,18.43
2019-03-23T19:00:19.087Z,18.97
2019-03-23T19:02:50.110Z,16.93
2019-03-23T19:05:20.899Z,18.77
2019-03-23T19:07:51.731Z,19.13
2019-03-23T19:10:22.607Z,20.20
2019-03-23T19:12:53.498Z,19.63
2019-03-23T19:15:24.459Z,17.00
2019-03-23T19:17:55.348Z,16.73
2019-03-23T19:20:27.267Z,15.47
2019-03-23T19:22:58.287Z,15.37
2019-03-23T19:25:29.187Z,15.33
2019-03-23T19:28:00.119Z,15.37
2019-03-23T19:30:31.073Z,13.80
2019-03-23T19:33:02.100Z,12.73
2019-03-23T19:35:32.947Z,13.63
2019-03-23T19:38:03.960Z,12.50
2019-03-23T19:40:34.847Z,12.07
2019-03-23T19:43:05.991Z,12.90
2019-03-23T19:45:36.887Z,22.73
2019-03-23T19:48:07.807Z,19.93
2019-03-23T19:50:38.701Z,15.70
2019-03-23T19:53:09.640Z,15.97
2019-03-23T19:55:40.587Z,11.40
2019-03-23T19:58:11.499Z,10.13
2019-03-23T20:00:43.738Z,10.43
2019-03-23T20:03:19.200Z,10.97
2019-03-23T20:05:57.206Z,9.83
2019-03-23T20:08:28.445Z,10.23
2019-03-23T20:11:01.987Z,10.10
2019-03-23T20:13:37.842Z,10.20
2019-03-23T20:16:13.104Z,9.53
2019-03-23T20:18:44.641Z,9.53
2019-03-23T20:21:19.882Z,11.10
2019-03-23T20:23:57.189Z,10.13
2019-03-23T20:26:31.122Z,9.83
2019-03-23T20:29:09.119Z,10.70
2019-03-23T20:31:45.621Z,10.37
2019-03-23T20:34:20.833Z,10.33
2019-03-23T20:36:54.082Z,9.67
2019-03-23T20:39:26.574Z,9.80
2019-03-23T20:41:59.702Z,8.83
2019-03-23T20:44:32.222Z,9.57
2019-03-23T20:47:05.122Z,9.33
2019-03-23T20:49:41.194Z,8.83
2019-03-23T20:52:17.453Z,8.77
2019-03-23T20:54:50.366Z,8.80
2019-03-23T20:57:36.923Z,9.23
2019-03-23T21:00:06.274Z,9.33
2019-03-23T21:02:44.714Z,8.73
2019-03-23T21:05:33.055Z,8.70
2019-03-23T21:08:02.623Z,9.00
2019-03-23T21:10:37.637Z,8.50
2019-03-23T21:13:10.393Z,8.90
2019-03-23T21:15:45.759Z,8.80
2019-03-23T21:18:20.004Z,8.27
2019-03-23T21:20:54.519Z,9.60
2019-03-23T21:23:28.274Z,8.60
2019-03-23T21:26:03.861Z,8.47
2019-03-23T21:28:37.670Z,8.33
2019-03-23T21:31:10.922Z,8.43
2019-03-23T21:33:48.938Z,9.37
2019-03-23T21:36:23.930Z,8.70
2019-03-23T21:38:59.434Z,11.27
2019-03-23T21:41:34.231Z,11.10
2019-03-23T21:44:09.198Z,11.17
2019-03-23T21:46:45.934Z,10.70
2019-03-23T21:49:22.610Z,9.80
2019-03-23T21:51:53.732Z,10.87
2019-03-23T21:54:24.574Z,10.87
2019-03-23T21:56:55.374Z,10.37
2019-03-23T21:59:26.198Z,11.53
2019-03-23T22:01:57.016Z,10.93
2019-03-23T22:04:27.829Z,10.70
2019-03-23T22:06:58.691Z,11.37
2019-03-23T22:09:30.482Z,11.50
2019-03-23T22:12:01.578Z,11.93
2019-03-23T22:14:41.383Z,10.90
2019-03-23T22:17:06.003Z,11.27
2019-03-23T22:19:37.046Z,10.27
2019-03-23T22:22:07.917Z,10.50
2019-03-23T22:24:38.922Z,9.57
2019-03-23T22:27:09.714Z,9.30
2019-03-23T22:29:40.606Z,8.73
2019-03-23T22:32:12.385Z,8.40
2019-03-23T22:34:43.190Z,8.77
2019-03-23T22:37:14.020Z,7.73
2019-03-23T22:39:44.850Z,8.30
2019-03-23T22:42:15.722Z,8.47
2019-03-23T22:44:52.505Z,8.17
2019-03-23T22:47:18.999Z,6.87
2019-03-23T22:49:50.658Z,6.87
2019-03-23T22:52:21.450Z,7.60
2019-03-23T22:54:53.387Z,7.30
2019-03-23T22:57:24.190Z,6.93
2019-03-23T22:59:54.998Z,6.80
2019-03-23T23:02:31.930Z,6.67
2019-03-23T23:05:02.858Z,6.63
2019-03-23T23:07:35.090Z,6.77
2019-03-23T23:10:06.730Z,7.37
2019-03-23T23:12:37.620Z,6.83
2019-03-23T23:15:20.582Z,5.97
2019-03-23T23:17:51.378Z,5.90
2019-03-23T23:20:22.290Z,6.43
2019-03-23T23:22:53.182Z,5.80
2019-03-23T23:25:24.054Z,5.83
2019-03-23T23:27:55.854Z,5.87
2019-03-23T23:30:26.778Z,5.67
2019-03-23T23:32:57.718Z,5.73
2019-03-23T23:35:28.538Z,6.77
2019-03-23T23:37:59.426Z,6.23
2019-03-23T23:40:30.470Z,5.63
2019-03-23T23:43:01.286Z,5.90
2019-03-23T23:45:32.506Z,5.53
2019-03-23T23:48:03.374Z,5.50
2019-03-23T23:50:34.182Z,5.77
2019-03-23T23:53:05.456Z,4.97
2019-03-23T23:55:36.434Z,5.23
2019-03-23T23:58:07.322Z,5.40
